createdAt,value
2018-09-15T00:02:16.100Z,9.63
2018-09-15T00:04:44.549Z,5.87
2018-09-15T00:07:13.013Z,6.77
2018-09-15T00:09:41.446Z,4.90
2018-09-15T00:12:09.884Z,3.33
2018-09-15T00:14:38.330Z,5.03
2018-09-15T00:17:06.903Z,4.83
2018-09-15T00:19:35.362Z,4.83
2018-09-15T00:22:03.830Z,2.70
2018-09-15T00:24:32.322Z,4.40
2018-09-15T00:27:00.811Z,4.77
2018-09-15T00:29:29.398Z,3.37
2018-09-15T00:31:57.862Z,3.53
2018-09-15T00:34:26.419Z,5.93
2018-09-15T00:36:54.944Z,6.20
2018-09-15T00:39:23.409Z,3.97
2018-09-15T00:41:51.999Z,3.23
2018-09-15T00:44:20.455Z,5.10
2018-09-15T00:46:48.920Z,4.80
2018-09-15T00:49:17.411Z,5.23
2018-09-15T00:51:46.065Z,4.00
2018-09-15T00:54:14.584Z,2.60
2018-09-15T00:56:43.063Z,3.13
2018-09-15T00:59:11.513Z,3.10
2018-09-15T01:01:40.144Z,2.63
2018-09-15T01:04:08.678Z,3.07
2018-09-15T01:06:37.257Z,4.97
2018-09-15T01:09:08.115Z,2.57
2018-09-15T01:11:36.632Z,2.83
2018-09-15T01:14:05.285Z,3.70
2018-09-15T01:16:33.862Z,2.03
2018-09-15T01:19:02.366Z,5.07
2018-09-15T01:21:30.886Z,1.70
2018-09-15T01:23:59.611Z,6.40
2018-09-15T01:26:28.123Z,5.63
2018-09-15T01:28:56.988Z,3.63
2018-09-15T01:31:25.470Z,2.97
2018-09-15T01:33:54.289Z,3.57
2018-09-15T01:36:23.788Z,2.53
2018-09-15T01:38:52.246Z,2.73
2018-09-15T01:41:20.869Z,4.07
2018-09-15T01:43:49.656Z,5.33
2018-09-15T01:46:18.242Z,5.33
2018-09-15T01:48:46.712Z,2.83
2018-09-15T01:51:15.228Z,2.50
2018-09-15T01:53:43.721Z,3.23
2018-09-15T01:56:12.257Z,3.00
2018-09-15T01:58:41.701Z,2.90
2018-09-15T02:01:10.221Z,3.47
2018-09-15T02:03:38.661Z,2.93
2018-09-15T02:06:07.133Z,3.53
2018-09-15T02:08:35.570Z,3.10
2018-09-15T02:11:04.020Z,5.20
2018-09-15T02:13:32.513Z,2.53
2018-09-15T02:16:01.064Z,2.13
2018-09-15T02:18:29.519Z,2.40
2018-09-15T02:20:57.950Z,5.23
2018-09-15T02:23:26.402Z,2.90
2018-09-15T02:25:54.842Z,4.80
2018-09-15T02:28:23.336Z,5.83
2018-09-15T02:30:51.794Z,6.53
2018-09-15T02:33:20.237Z,5.27
2018-09-15T02:35:48.709Z,3.80
2018-09-15T02:38:17.230Z,4.27
2018-09-15T02:40:45.677Z,5.00
2018-09-15T02:43:14.150Z,6.00
2018-09-15T02:45:42.751Z,2.77
2018-09-15T02:48:11.239Z,5.10
2018-09-15T02:50:40.227Z,4.57
2018-09-15T02:53:08.726Z,3.40
2018-09-15T02:55:37.197Z,3.10
2018-09-15T02:58:05.658Z,4.60
2018-09-15T03:00:34.144Z,6.17
2018-09-15T03:03:02.621Z,4.43
2018-09-15T03:05:31.114Z,5.03
2018-09-15T03:07:59.587Z,4.60
2018-09-15T03:10:28.071Z,6.07
2018-09-15T03:12:56.529Z,4.27
2018-09-15T03:15:24.976Z,4.17
2018-09-15T03:17:53.427Z,6.63
2018-09-15T03:20:21.879Z,4.43
2018-09-15T03:22:50.393Z,4.67
2018-09-15T03:25:18.830Z,4.17
2018-09-15T03:27:47.284Z,5.03
2018-09-15T03:30:15.758Z,5.07
2018-09-15T03:32:44.196Z,3.97
2018-09-15T03:35:12.645Z,6.87
2018-09-15T03:37:41.122Z,5.77
2018-09-15T03:40:09.586Z,5.87
2018-09-15T03:42:38.037Z,5.80
2018-09-15T03:45:06.745Z,5.67
2018-09-15T03:47:35.180Z,6.10
2018-09-15T03:50:03.690Z,6.00
2018-09-15T03:52:32.155Z,7.80
2018-09-15T03:55:01.150Z,7.37
2018-09-15T03:57:29.613Z,5.10
2018-09-15T03:59:58.192Z,9.10
2018-09-15T04:02:26.650Z,10.07
2018-09-15T04:04:55.130Z,7.43
2018-09-15T04:07:23.644Z,8.20
2018-09-15T04:09:52.099Z,9.63
2018-09-15T04:12:20.566Z,9.60
2018-09-15T04:14:49.017Z,10.53
2018-09-15T04:17:17.434Z,8.77
2018-09-15T04:19:45.910Z,8.17
2018-09-15T04:22:14.374Z,6.47
2018-09-15T04:24:42.805Z,7.67
2018-09-15T04:27:11.447Z,10.77
2018-09-15T04:29:39.881Z,6.40
2018-09-15T04:32:08.370Z,7.80
2018-09-15T04:34:36.832Z,7.33
2018-09-15T04:37:05.337Z,8.13
2018-09-15T04:39:34.417Z,7.87
2018-09-15T04:42:03.441Z,9.83
2018-09-15T04:44:31.906Z,8.93
2018-09-15T04:47:00.356Z,9.50
2018-09-15T04:49:28.822Z,8.07
2018-09-15T04:51:57.774Z,10.33
2018-09-15T04:54:26.228Z,8.57
2018-09-15T04:56:54.667Z,9.50
2018-09-15T04:59:23.587Z,8.77
2018-09-15T05:01:52.088Z,8.80
2018-09-15T05:04:20.537Z,9.40
2018-09-15T05:06:49.002Z,9.27
2018-09-15T05:09:17.440Z,8.10
2018-09-15T05:11:46.581Z,8.33
2018-09-15T05:14:15.018Z,9.57
2018-09-15T05:16:43.492Z,10.10
2018-09-15T05:19:11.945Z,10.63
2018-09-15T05:21:40.396Z,14.83
2018-09-15T05:24:08.873Z,10.43
2018-09-15T05:26:37.340Z,9.33
2018-09-15T05:29:05.806Z,7.93
2018-09-15T05:31:34.268Z,6.03
2018-09-15T05:34:02.730Z,12.10
2018-09-15T05:36:31.202Z,7.10
2018-09-15T05:38:59.632Z,8.93
2018-09-15T05:41:28.084Z,11.57
2018-09-15T05:43:56.650Z,7.97
2018-09-15T05:46:25.106Z,11.03
2018-09-15T05:48:53.557Z,7.03
2018-09-15T05:51:21.994Z,7.10
2018-09-15T05:53:50.500Z,12.87
2018-09-15T05:56:19.026Z,6.77
2018-09-15T05:58:47.492Z,7.57
2018-09-15T06:01:16.624Z,9.23
2018-09-15T06:03:45.100Z,7.87
2018-09-15T06:06:13.545Z,9.67
2018-09-15T06:08:41.974Z,8.87
2018-09-15T06:11:10.422Z,8.67
2018-09-15T06:13:38.939Z,11.00
2018-09-15T06:16:07.494Z,8.83
2018-09-15T06:18:35.968Z,9.10
2018-09-15T06:21:04.434Z,7.77
2018-09-15T06:23:32.871Z,9.10
2018-09-15T06:26:01.426Z,10.87
2018-09-15T06:28:29.907Z,7.37
2018-09-15T06:30:59.006Z,7.63
2018-09-15T06:33:27.385Z,10.73
2018-09-15T06:35:55.974Z,9.53
2018-09-15T06:38:24.440Z,5.37
2018-09-15T06:40:52.893Z,4.77
2018-09-15T06:43:21.328Z,9.53
2018-09-15T06:45:49.896Z,10.73
2018-09-15T06:48:18.333Z,10.63
2018-09-15T06:50:46.786Z,9.27
2018-09-15T06:53:15.233Z,7.07
2018-09-15T06:55:43.742Z,9.07
2018-09-15T06:58:12.202Z,6.10
2018-09-15T07:00:40.805Z,8.93
2018-09-15T07:03:09.457Z,8.53
2018-09-15T07:05:37.976Z,9.60
2018-09-15T07:08:06.514Z,7.03
2018-09-15T07:10:34.985Z,8.90
2018-09-15T07:13:03.550Z,9.17
2018-09-15T07:15:31.984Z,7.77
2018-09-15T07:18:00.448Z,10.83
2018-09-15T07:20:28.878Z,8.87
2018-09-15T07:22:57.386Z,11.77
2018-09-15T07:25:25.865Z,8.53
2018-09-15T07:27:54.347Z,7.80
2018-09-15T07:30:22.873Z,7.17
2018-09-15T07:32:51.316Z,7.50
2018-09-15T07:35:19.835Z,7.80
2018-09-15T07:37:49.112Z,6.90
2018-09-15T07:40:17.494Z,7.50
2018-09-15T07:42:45.974Z,7.53
2018-09-15T07:45:14.470Z,6.23
2018-09-15T07:47:42.896Z,7.33
2018-09-15T07:50:12.196Z,7.13
2018-09-15T07:52:40.671Z,6.70
2018-09-15T07:55:09.173Z,8.23
2018-09-15T07:57:37.703Z,12.87
2018-09-15T08:00:06.206Z,7.17
2018-09-15T08:02:34.684Z,10.50
2018-09-15T08:05:03.133Z,8.83
2018-09-15T08:07:31.654Z,9.17
2018-09-15T08:10:00.990Z,8.50
2018-09-15T08:12:29.565Z,9.00
2018-09-15T08:14:58.015Z,8.00
2018-09-15T08:17:26.520Z,6.97
2018-09-15T08:19:55.022Z,8.33
2018-09-15T08:22:23.470Z,7.13
2018-09-15T08:24:51.941Z,7.13
2018-09-15T08:27:20.436Z,6.67
2018-09-15T08:29:48.873Z,6.30
2018-09-15T08:32:17.370Z,5.97
2018-09-15T08:34:45.914Z,7.97
2018-09-15T08:37:14.485Z,6.13
2018-09-15T08:39:43.067Z,6.67
2018-09-15T08:42:11.613Z,5.83
2018-09-15T08:44:40.196Z,5.70
2018-09-15T08:47:08.825Z,4.73
2018-09-15T08:49:37.471Z,7.17
2018-09-15T08:52:06.020Z,7.10
2018-09-15T08:54:34.663Z,7.13
2018-09-15T08:57:03.334Z,6.30
2018-09-15T08:59:32.008Z,12.20
2018-09-15T09:02:00.641Z,7.10
2018-09-15T09:04:29.130Z,6.27
2018-09-15T09:06:57.581Z,6.73
2018-09-15T09:09:26.121Z,7.53
2018-09-15T09:11:54.573Z,10.57
2018-09-15T09:14:23.093Z,5.20
2018-09-15T09:16:51.620Z,8.93
2018-09-15T09:19:20.185Z,8.67
2018-09-15T09:21:48.645Z,9.67
2018-09-15T09:24:17.191Z,7.37
2018-09-15T09:26:45.770Z,7.73
2018-09-15T09:29:14.358Z,9.90
2018-09-15T09:31:42.934Z,5.73
2018-09-15T09:34:13.678Z,11.80
2018-09-15T09:36:42.233Z,7.43
2018-09-15T09:39:12.357Z,7.00
2018-09-15T09:41:41.474Z,10.63
2018-09-15T09:44:09.998Z,7.07
2018-09-15T09:46:38.534Z,5.30
2018-09-15T09:49:07.286Z,9.00
2018-09-15T09:51:35.814Z,5.43
2018-09-15T09:54:04.302Z,5.23
2018-09-15T09:56:32.789Z,4.80
2018-09-15T09:59:01.233Z,6.93
2018-09-15T10:01:33.903Z,7.37
2018-09-15T10:04:02.356Z,4.83
2018-09-15T10:06:30.822Z,6.33
2018-09-15T10:08:59.290Z,5.87
2018-09-15T10:11:27.770Z,4.10
2018-09-15T10:13:56.238Z,4.63
2018-09-15T10:16:24.847Z,5.37
2018-09-15T10:18:53.248Z,5.60
2018-09-15T10:21:21.711Z,4.23
2018-09-15T10:23:50.206Z,3.20
2018-09-15T10:26:18.702Z,6.07
2018-09-15T10:28:47.264Z,8.47
2018-09-15T10:31:15.739Z,10.03
2018-09-15T10:33:44.221Z,6.27
2018-09-15T10:36:13.458Z,4.10
2018-09-15T10:38:41.958Z,4.20
2018-09-15T10:41:10.527Z,3.83
2018-09-15T10:43:39.032Z,4.53
2018-09-15T10:46:07.535Z,4.37
2018-09-15T10:48:36.013Z,8.17
2018-09-15T10:51:04.560Z,3.27
2018-09-15T10:53:33.475Z,3.60
2018-09-15T10:56:01.994Z,3.67
2018-09-15T10:58:30.450Z,3.40
2018-09-15T11:00:58.958Z,3.43
2018-09-15T11:03:27.419Z,4.73
2018-09-15T11:05:55.916Z,4.13
2018-09-15T11:08:24.421Z,7.63
2018-09-15T11:10:52.898Z,13.87
2018-09-15T11:13:21.482Z,6.77
2018-09-15T11:15:49.914Z,2.87
2018-09-15T11:18:18.411Z,4.47
2018-09-15T11:20:46.895Z,3.23
2018-09-15T11:23:15.337Z,2.70
2018-09-15T11:25:43.807Z,4.23
2018-09-15T11:28:12.265Z,3.77
2018-09-15T11:30:40.749Z,4.73
2018-09-15T11:33:09.218Z,6.67
2018-09-15T11:35:37.687Z,5.23
2018-09-15T11:38:07.154Z,3.07
2018-09-15T11:40:35.761Z,2.27
2018-09-15T11:43:04.336Z,5.27
2018-09-15T11:45:32.813Z,3.53
2018-09-15T11:48:01.310Z,6.40
2018-09-15T11:50:29.768Z,2.53
2018-09-15T11:52:58.285Z,4.93
2018-09-15T11:55:26.748Z,5.13
2018-09-15T11:57:55.234Z,3.13
2018-09-15T12:00:27.058Z,2.73
2018-09-15T12:02:55.521Z,2.67
2018-09-15T12:05:23.988Z,2.70
2018-09-15T12:07:52.531Z,4.60
2018-09-15T12:10:21.035Z,5.00
2018-09-15T12:12:49.538Z,1.83
2018-09-15T12:15:18.214Z,4.90
2018-09-15T12:17:46.758Z,3.37
2018-09-15T12:20:15.235Z,4.13
2018-09-15T12:22:44.301Z,5.87
2018-09-15T12:25:12.854Z,2.93
2018-09-15T12:27:42.119Z,2.70
2018-09-15T12:30:10.757Z,2.13
2018-09-15T12:32:39.260Z,4.60
2018-09-15T12:35:08.565Z,5.20
2018-09-15T12:37:37.077Z,2.50
2018-09-15T12:40:08.674Z,2.43
2018-09-15T12:42:37.258Z,2.47
2018-09-15T12:45:05.934Z,2.10
2018-09-15T12:47:34.418Z,1.47
2018-09-15T12:50:02.906Z,1.30
2018-09-15T12:52:31.382Z,1.67
2018-09-15T12:54:59.849Z,1.97
2018-09-15T12:57:28.305Z,4.60
2018-09-15T12:59:56.899Z,5.30
2018-09-15T13:02:25.491Z,3.87
2018-09-15T13:04:53.943Z,2.23
2018-09-15T13:07:22.479Z,1.70
2018-09-15T13:09:50.958Z,1.63
2018-09-15T13:12:19.449Z,4.53
2018-09-15T13:14:48.616Z,2.63
2018-09-15T13:17:17.312Z,6.50
2018-09-15T13:19:45.864Z,6.70
2018-09-15T13:22:15.451Z,5.03
2018-09-15T13:24:43.916Z,6.47
2018-09-15T13:27:12.357Z,2.27
2018-09-15T13:29:40.945Z,2.97
2018-09-15T13:32:09.311Z,2.77
2018-09-15T13:34:39.992Z,1.97
2018-09-15T13:37:08.515Z,4.77
2018-09-15T13:39:39.170Z,2.87
2018-09-15T13:42:07.994Z,4.47
2018-09-15T13:44:37.122Z,2.87
2018-09-15T13:47:06.682Z,1.87
2018-09-15T13:49:35.443Z,2.07
2018-09-15T13:52:03.930Z,2.50
2018-09-15T13:54:32.600Z,5.87
2018-09-15T13:57:01.079Z,3.67
2018-09-15T13:59:29.578Z,5.13
2018-09-15T14:01:58.508Z,1.53
2018-09-15T14:04:26.998Z,3.87
2018-09-15T14:06:55.494Z,4.20
2018-09-15T14:09:24.829Z,2.60
2018-09-15T14:11:53.279Z,2.70
2018-09-15T14:14:21.746Z,3.70
2018-09-15T14:16:51.141Z,3.63
2018-09-15T14:19:19.554Z,2.10
2018-09-15T14:21:48.891Z,3.13
2018-09-15T14:24:18.363Z,1.43
2018-09-15T14:26:48.689Z,3.83
2018-09-15T14:29:17.145Z,1.73
2018-09-15T14:31:45.846Z,2.07
2018-09-15T14:34:14.510Z,3.03
2018-09-15T14:36:43.029Z,4.40
2018-09-15T14:39:12.281Z,5.57
2018-09-15T14:41:41.102Z,3.30
2018-09-15T14:44:10.571Z,2.63
2018-09-15T14:46:38.955Z,3.10
2018-09-15T14:49:07.507Z,1.93
2018-09-15T14:51:36.026Z,1.60
2018-09-15T14:54:05.104Z,4.77
2018-09-15T14:56:33.642Z,3.27
2018-09-15T14:59:02.139Z,4.03
2018-09-15T15:01:30.618Z,4.10
2018-09-15T15:03:59.059Z,5.50
2018-09-15T15:06:27.502Z,3.37
2018-09-15T15:08:55.978Z,4.50
2018-09-15T15:11:24.478Z,6.27
2018-09-15T15:13:52.940Z,6.60
2018-09-15T15:16:21.450Z,4.90
2018-09-15T15:18:49.915Z,6.27
2018-09-15T15:21:18.406Z,5.13
2018-09-15T15:23:46.837Z,3.13
2018-09-15T15:26:15.356Z,3.87
2018-09-15T15:28:43.795Z,10.40
2018-09-15T15:31:12.237Z,9.47
2018-09-15T15:33:40.666Z,4.33
2018-09-15T15:36:09.133Z,2.63
2018-09-15T15:38:37.617Z,3.77
2018-09-15T15:41:06.813Z,8.93
2018-09-15T15:43:35.355Z,2.50
2018-09-15T15:46:03.798Z,4.90
2018-09-15T15:48:32.365Z,2.57
2018-09-15T15:51:00.813Z,2.73
2018-09-15T15:53:29.237Z,2.43
2018-09-15T15:55:58.794Z,2.63
2018-09-15T15:58:27.307Z,4.73
2018-09-15T16:00:55.681Z,3.17
2018-09-15T16:03:24.798Z,2.80
2018-09-15T16:05:53.189Z,3.33
2018-09-15T16:08:22.297Z,3.20
2018-09-15T16:10:50.835Z,6.00
2018-09-15T16:13:19.270Z,1.97
2018-09-15T16:15:47.709Z,3.20
2018-09-15T16:18:16.162Z,1.43
2018-09-15T16:20:44.613Z,2.50
2018-09-15T16:23:13.057Z,2.70
2018-09-15T16:25:41.535Z,3.53
2018-09-15T16:28:09.950Z,3.37
2018-09-15T16:30:38.503Z,2.27
2018-09-15T16:33:07.098Z,4.87
2018-09-15T16:35:35.514Z,4.53
2018-09-15T16:38:03.970Z,4.77
2018-09-15T16:40:33.299Z,2.27
2018-09-15T16:43:01.704Z,5.73
2018-09-15T16:45:30.150Z,3.57
2018-09-15T16:47:58.606Z,2.07
2018-09-15T16:50:27.106Z,4.13
2018-09-15T16:52:55.627Z,2.60
2018-09-15T16:55:24.084Z,3.37
2018-09-15T16:57:52.544Z,5.43
2018-09-15T17:00:21.014Z,2.97
2018-09-15T17:02:49.437Z,3.67
2018-09-15T17:05:18.475Z,2.20
2018-09-15T17:07:46.908Z,6.37
2018-09-15T17:10:15.438Z,3.50
2018-09-15T17:12:43.930Z,2.00
2018-09-15T17:15:12.472Z,3.23
2018-09-15T17:17:40.938Z,2.13
2018-09-15T17:20:09.444Z,4.33
2018-09-15T17:22:37.864Z,3.70
2018-09-15T17:25:06.485Z,3.03
2018-09-15T17:27:34.941Z,3.00
2018-09-15T17:30:03.531Z,3.53
2018-09-15T17:32:31.993Z,6.23
2018-09-15T17:35:00.428Z,3.27
2018-09-15T17:37:28.945Z,3.10
2018-09-15T17:39:57.384Z,4.17
2018-09-15T17:42:25.854Z,4.23
2018-09-15T17:44:54.294Z,6.27
2018-09-15T17:47:22.775Z,4.07
2018-09-15T17:49:51.222Z,4.03
2018-09-15T17:52:19.686Z,4.10
2018-09-15T17:54:48.124Z,8.80
2018-09-15T17:57:16.613Z,3.70
2018-09-15T17:59:45.055Z,4.93
2018-09-15T18:02:13.528Z,5.93
2018-09-15T18:04:41.970Z,4.37
2018-09-15T18:07:10.425Z,12.77
2018-09-15T18:09:38.914Z,8.43
2018-09-15T18:12:07.411Z,4.63
2018-09-15T18:14:36.010Z,4.37
2018-09-15T18:17:04.526Z,4.30
2018-09-15T18:19:32.989Z,5.23
2018-09-15T18:22:02.977Z,8.97
2018-09-15T18:24:31.618Z,9.37
2018-09-15T18:27:00.039Z,5.07
2018-09-15T18:29:28.473Z,8.10
2018-09-15T18:31:56.906Z,4.07
2018-09-15T18:34:25.485Z,6.53
2018-09-15T18:36:54.122Z,5.50
2018-09-15T18:39:22.443Z,5.53
2018-09-15T18:41:50.896Z,7.70
2018-09-15T18:44:19.410Z,7.37
2018-09-15T18:46:47.878Z,6.53
2018-09-15T18:49:16.394Z,6.20
2018-09-15T18:51:44.882Z,8.40
2018-09-15T18:54:13.515Z,7.27
2018-09-15T18:56:42.737Z,4.10
2018-09-15T18:59:11.153Z,3.33
2018-09-15T19:01:39.637Z,4.90
2018-09-15T19:04:08.065Z,3.83
2018-09-15T19:06:36.595Z,5.20
2018-09-15T19:09:07.837Z,3.57
2018-09-15T19:11:36.305Z,4.77
2018-09-15T19:14:04.773Z,4.87
2018-09-15T19:16:33.909Z,3.93
2018-09-15T19:19:02.481Z,5.73
2018-09-15T19:21:31.965Z,3.87
2018-09-15T19:24:00.422Z,4.80
2018-09-15T19:26:28.930Z,6.00
2018-09-15T19:28:57.361Z,6.57
2018-09-15T19:31:26.177Z,7.70
2018-09-15T19:33:55.878Z,8.13
2018-09-15T19:36:24.359Z,9.37
2018-09-15T19:38:52.827Z,7.13
2018-09-15T19:41:21.328Z,8.10
2018-09-15T19:43:49.818Z,6.67
2018-09-15T19:46:18.281Z,7.27
2018-09-15T19:48:46.729Z,7.07
2018-09-15T19:51:15.173Z,7.60
2018-09-15T19:53:43.631Z,7.27
2018-09-15T19:56:12.079Z,25.73
2018-09-15T19:58:40.537Z,11.90
2018-09-15T20:01:08.976Z,10.20
2018-09-15T20:03:37.493Z,8.97
2018-09-15T20:06:06.099Z,7.60
2018-09-15T20:08:34.475Z,8.10
2018-09-15T20:11:02.917Z,8.47
2018-09-15T20:13:31.372Z,8.10
2018-09-15T20:15:58.664Z,5.87
2018-09-15T20:18:25.990Z,6.27
2018-09-15T20:20:53.370Z,6.90
2018-09-15T20:23:21.830Z,7.03
2018-09-15T20:25:50.296Z,7.40
2018-09-15T20:28:18.731Z,7.07
2018-09-15T20:30:47.189Z,5.20
2018-09-15T20:33:15.804Z,6.87
2018-09-15T20:35:44.398Z,7.53
2018-09-15T20:38:12.979Z,6.47
2018-09-15T20:40:41.493Z,6.93
2018-09-15T20:43:09.958Z,4.67
2018-09-15T20:45:38.454Z,5.43
2018-09-15T20:48:06.930Z,4.97
2018-09-15T20:50:35.423Z,8.67
2018-09-15T20:53:03.864Z,6.50
2018-09-15T20:55:32.387Z,7.33
2018-09-15T20:58:00.829Z,9.10
2018-09-15T21:00:29.788Z,10.57
2018-09-15T21:02:58.279Z,5.37
2018-09-15T21:05:26.734Z,6.10
2018-09-15T21:07:55.209Z,5.63
2018-09-15T21:10:23.668Z,5.50
2018-09-15T21:12:52.210Z,6.17
2018-09-15T21:15:20.696Z,7.63
2018-09-15T21:17:49.169Z,7.10
2018-09-15T21:20:17.615Z,5.23
2018-09-15T21:22:46.235Z,7.33
2018-09-15T21:25:14.670Z,5.97
2018-09-15T21:27:43.125Z,8.20
2018-09-15T21:30:11.577Z,9.83
2018-09-15T21:32:40.019Z,6.37
2018-09-15T21:35:08.457Z,6.57
2018-09-15T21:37:36.971Z,8.13
2018-09-15T21:40:05.449Z,6.20
2018-09-15T21:42:33.876Z,4.77
2018-09-15T21:45:02.316Z,5.83
2018-09-15T21:47:30.885Z,6.77
2018-09-15T21:49:59.337Z,10.83
2018-09-15T21:52:27.794Z,6.33
2018-09-15T21:54:56.244Z,6.03
2018-09-15T21:57:24.694Z,4.60
2018-09-15T21:59:53.178Z,6.97
2018-09-15T22:02:23.109Z,6.40
2018-09-15T22:04:53.619Z,5.43
2018-09-15T22:07:22.109Z,4.27
2018-09-15T22:09:50.553Z,5.33
2018-09-15T22:12:18.974Z,4.07
2018-09-15T22:14:47.431Z,4.90
2018-09-15T22:17:15.874Z,4.33
2018-09-15T22:19:44.405Z,4.73
2018-09-15T22:22:12.832Z,5.10
2018-09-15T22:24:41.283Z,5.77
2018-09-15T22:27:09.937Z,5.43
2018-09-15T22:29:38.369Z,5.50
2018-09-15T22:32:07.880Z,6.33
2018-09-15T22:34:36.378Z,9.87
2018-09-15T22:37:04.940Z,4.50
2018-09-15T22:39:33.394Z,5.27
2018-09-15T22:42:01.900Z,5.93
2018-09-15T22:44:30.357Z,5.67
2018-09-15T22:46:58.853Z,5.07
2018-09-15T22:49:27.377Z,4.70
2018-09-15T22:51:55.873Z,5.40
2018-09-15T22:54:24.357Z,5.93
2018-09-15T22:56:52.747Z,4.73
2018-09-15T22:59:21.176Z,7.40
2018-09-15T23:01:49.661Z,7.73
2018-09-15T23:04:18.084Z,7.30
2018-09-15T23:06:46.509Z,5.70
2018-09-15T23:09:14.937Z,4.33
2018-09-15T23:11:43.371Z,5.00
2018-09-15T23:14:11.817Z,4.23
2018-09-15T23:16:40.410Z,7.67
2018-09-15T23:19:08.883Z,5.63
2018-09-15T23:21:37.320Z,5.23
2018-09-15T23:24:05.814Z,7.83
2018-09-15T23:26:34.250Z,3.73
2018-09-15T23:29:02.723Z,5.33
2018-09-15T23:31:31.176Z,4.80
2018-09-15T23:33:59.687Z,5.53
2018-09-15T23:36:28.250Z,6.17
2018-09-15T23:38:56.795Z,6.83
2018-09-15T23:41:25.226Z,5.73
2018-09-15T23:43:53.750Z,6.57
2018-09-15T23:46:22.223Z,4.23
2018-09-15T23:48:50.649Z,5.03
2018-09-15T23:51:19.145Z,5.63
2018-09-15T23:53:47.575Z,8.03
2018-09-15T23:56:16.014Z,7.83
2018-09-15T23:58:44.456Z,9.47
